Home > Products > Valid Products > TAF

000
FTUS45 KRIW 100619 AAA
TAFCOD
TAF AMD
KCOD 100619Z 1006/1106 26014G20KT P6SM SCT250
     FM101900 27015G25KT P6SM FEW120 BKN200
      AMD LTD TO CLD VIS AND WIND=



000
FTUS45 KRIW 100533
TAFRKS
TAF
KRKS 100533Z 1006/1106 24011KT P6SM SKC
     FM101800 26014G20KT P6SM SCT200=



000
FTUS45 KRIW 100533
TAFJAC
TAF
KJAC 100533Z 1006/1106 02008KT P6SM VCFG FEW005
     FM101400 VRB05KT P6SM BCFG SCT005
      TEMPO 1014/1018 2SM BR
     FM101900 VRB05KT P6SM FEW005
     FM102100 20006KT P6SM SCT200
     FM110300 01006KT P6SM BKN200
      AMD LTD TO CLD VIS AND WIND=



000
FTUS45 KRIW 100533
TAFLND
TAF
KLND 100533Z 1006/1106 VRB05KT P6SM SCT250=



000
FTUS45 KRIW 100533
TAFCOD
TAF
KCOD 100533Z 1006/1106 VRB06KT P6SM SCT250
     FM101000 26014G20KT P6SM SCT250
     FM101900 27015G25KT P6SM FEW120 BKN200
      AMD LTD TO CLD VIS AND WIND=



000
FTUS45 KRIW 100533
TAFRIW
TAF
KRIW 100533Z 1006/1106 28007KT P6SM SKC
     FM101400 VRB04KT P6SM SCT250
     FM110400 28007KT P6SM BKN250=



000
FTUS45 KRIW 100533
TAFRKS
TAF
KRKS 100533Z 1006/1106 24011KT P6SM SKC
     FM101800 26014G20KT P6SM SCT200=



000
FTUS45 KRIW 100533
TAFWRL
TAF
KWRL 100533Z 1006/1106 VRB06KT P6SM SCT250=



000
FTUS45 KRIW 100533
TAFJAC
TAF
KJAC 100533Z 1006/1106 02008KT P6SM VCFG FEW005
     FM101400 VRB05KT P6SM BCFG SCT005
      TEMPO 1014/1018 2SM BR
     FM101900 VRB05KT P6SM FEW005
     FM102100 20006KT P6SM SCT200
     FM110300 01006KT P6SM BKN200
      AMD LTD TO CLD VIS AND WIND=



000
FTUS45 KRIW 100533
TAFLND
TAF
KLND 100533Z 1006/1106 VRB05KT P6SM SCT250=



000
FTUS45 KRIW 100533
TAFBPI
TAF
KBPI 100533Z 1006/1106 VRB06KT P6SM SKC
     FM110100 34007KT P6SM SCT250=



000
FTUS45 KRIW 100533
TAFCPR
TAF
KCPR 100533Z 1006/1106 22025G35KT P6SM FEW200
     FM102200 24015G20KT P6SM BKN200=



000
FTUS45 KRIW 100533
TAFWRL
TAF
KWRL 100533Z 1006/1106 VRB06KT P6SM SCT250=



000
FTUS45 KRIW 100533
TAFRIW
TAF
KRIW 100533Z 1006/1106 28007KT P6SM SKC
     FM101400 VRB04KT P6SM SCT250
     FM110400 28007KT P6SM BKN250=



000
FTUS45 KRIW 100533
TAFBPI
TAF
KBPI 100533Z 1006/1106 VRB06KT P6SM SKC
     FM110100 34007KT P6SM SCT250=



000
FTUS45 KRIW 100533
TAFCPR
TAF
KCPR 100533Z 1006/1106 22025G35KT P6SM FEW200
     FM102200 24015G20KT P6SM BKN200=



000
FTUS45 KRIW 100533
TAFCOD
TAF
KCOD 100533Z 1006/1106 VRB06KT P6SM SCT250
     FM101000 26014G20KT P6SM SCT250
     FM101900 27015G25KT P6SM FEW120 BKN200
      AMD LTD TO CLD VIS AND WIND=



000
FTUS45 KRIW 100358 AAA
TAFCPR
TAF AMD
KCPR 100358Z 1004/1024 22025G35KT P6SM FEW200
     FM102200 24015G20KT P6SM BKN200=



000
FTUS45 KRIW 092328
TAFLND
TAF
KLND 092328Z 1000/1024 VRB05KT P6SM SCT250
     FM101900 26011KT P6SM BKN200=



000
FTUS45 KRIW 092328
TAFBPI
TAF
KBPI 092328Z 1000/1024 VRB06KT P6SM FEW250=



000
FTUS45 KRIW 092328
TAFJAC
TAF
KJAC 092328Z 1000/1024 VRB03KT P6SM FEW003 FEW020
     FM100100 34005KT P6SM SKC
     FM100500 VRB03KT P6SM BCFG SCT005 SCT020
     FM101700 VRB05KT P6SM FEW005
     FM102000 20011KT P6SM SCT200
      AMD LTD TO CLD VIS AND WIND=



000
FTUS45 KRIW 092328
TAFRKS
TAF
KRKS 092328Z 1000/1024 24011KT P6SM SCT250
     FM101800 26011G20KT P6SM SCT200=



000
FTUS45 KRIW 092328
TAFCOD
TAF
KCOD 092328Z 1000/1024 VRB06KT P6SM SCT250
     FM100700 26014G20KT P6SM SCT250
     FM101000 26025KT P6SM SCT250
     FM101900 27015G26KT P6SM FEW100 OVC200
      AMD LTD TO CLD VIS AND WIND=



000
FTUS45 KRIW 092328
TAFCPR
TAF
KCPR 092328Z 1000/1024 22015KT P6SM FEW250
     FM100300 22015G25KT P6SM FEW250
     FM100600 22020G35KT P6SM FEW200
     FM102200 24015G20KT P6SM BKN200=



000
FTUS45 KRIW 092328
TAFRIW
TAF
KRIW 092328Z 1000/1024 VRB05KT P6SM SCT250
     FM101900 VRB06KT P6SM BKN200=



000
FTUS45 KRIW 092328
TAFWRL
TAF
KWRL 092328Z 1000/1024 VRB06KT P6SM SCT250
     FM101900 VRB06KT P6SM BKN200=



000
FTUS45 KRIW 092328
TAFRIW
TAF
KRIW 092328Z 1000/1024 VRB05KT P6SM SCT250
     FM101900 VRB06KT P6SM BKN200=



000
FTUS45 KRIW 092328
TAFLND
TAF
KLND 092328Z 1000/1024 VRB05KT P6SM SCT250
     FM101900 26011KT P6SM BKN200=



000
FTUS45 KRIW 092328
TAFJAC
TAF
KJAC 092328Z 1000/1024 VRB03KT P6SM FEW003 FEW020
     FM100100 34005KT P6SM SKC
     FM100500 VRB03KT P6SM BCFG SCT005 SCT020
     FM101700 VRB05KT P6SM FEW005
     FM102000 20011KT P6SM SCT200
      AMD LTD TO CLD VIS AND WIND=



000
FTUS45 KRIW 092328
TAFWRL
TAF
KWRL 092328Z 1000/1024 VRB06KT P6SM SCT250
     FM101900 VRB06KT P6SM BKN200=



000
FTUS45 KRIW 092328
TAFRKS
TAF
KRKS 092328Z 1000/1024 24011KT P6SM SCT250
     FM101800 26011G20KT P6SM SCT200=



000
FTUS45 KRIW 092328
TAFCOD
TAF
KCOD 092328Z 1000/1024 VRB06KT P6SM SCT250
     FM100700 26014G20KT P6SM SCT250
     FM101000 26025KT P6SM SCT250
     FM101900 27015G26KT P6SM FEW100 OVC200
      AMD LTD TO CLD VIS AND WIND=



000
FTUS45 KRIW 092328
TAFBPI
TAF
KBPI 092328Z 1000/1024 VRB06KT P6SM FEW250=



000
FTUS45 KRIW 092328
TAFCPR
TAF
KCPR 092328Z 1000/1024 22015KT P6SM FEW250
     FM100300 22015G25KT P6SM FEW250
     FM100600 22020G35KT P6SM FEW200
     FM102200 24015G20KT P6SM BKN200=



000
FTUS45 KRIW 091720
TAFCPR
TAF
KCPR 091720Z 0918/1018 21017G25KT P6SM FEW250
     FM100000 21015KT P6SM FEW250
     FM100600 22020G30KT P6SM FEW250=



000
FTUS45 KRIW 091720
TAFCOD
TAF
KCOD 091720Z 0918/1018 VRB06KT P6SM SCT250
     FM100700 26014G20KT P6SM SCT250
     FM101000 26025KT P6SM SCT250
      AMD LTD TO CLD VIS AND WIND=



000
FTUS45 KRIW 091720
TAFRIW
TAF
KRIW 091720Z 0918/1018 VRB05KT P6SM SCT250=



000
FTUS45 KRIW 091720
TAFRKS
TAF
KRKS 091720Z 0918/1018 24011KT P6SM SCT250=



000
FTUS45 KRIW 091720
TAFBPI
TAF
KBPI 091720Z 0918/1018 VRB06KT P6SM SCT250=



000
FTUS45 KRIW 091720
TAFBPI
TAF
KBPI 091720Z 0918/1018 VRB06KT P6SM SCT250=



000
FTUS45 KRIW 091720
TAFLND
TAF
KLND 091720Z 0918/1018 VRB05KT P6SM SCT250=



000
FTUS45 KRIW 091720
TAFLND
TAF
KLND 091720Z 0918/1018 VRB05KT P6SM SCT250=



000
FTUS45 KRIW 091720
TAFWRL
TAF
KWRL 091720Z 0918/1018 VRB06KT P6SM SCT250=



000
FTUS45 KRIW 091720
TAFJAC
TAF
KJAC 091720Z 0918/1018 VRB03KT P6SM FEW003 FEW020
     FM100100 34005KT P6SM SKC
     FM100500 VRB03KT P6SM VCFG SCT005
     FM101700 VRB05KT P6SM FEW005
      AMD LTD TO CLD VIS AND WIND=



000
FTUS45 KRIW 091720
TAFJAC
TAF
KJAC 091720Z 0918/1018 VRB03KT P6SM FEW003 FEW020
     FM100100 34005KT P6SM SKC
     FM100500 VRB03KT P6SM VCFG SCT005
     FM101700 VRB05KT P6SM FEW005
      AMD LTD TO CLD VIS AND WIND=



000
FTUS45 KRIW 091720
TAFWRL
TAF
KWRL 091720Z 0918/1018 VRB06KT P6SM SCT250=



000
FTUS45 KRIW 091720
TAFRKS
TAF
KRKS 091720Z 0918/1018 24011KT P6SM SCT250=



000
FTUS45 KRIW 091720
TAFCOD
TAF
KCOD 091720Z 0918/1018 VRB06KT P6SM SCT250
     FM100700 26014G20KT P6SM SCT250
     FM101000 26025KT P6SM SCT250
      AMD LTD TO CLD VIS AND WIND=



000
FTUS45 KRIW 091720
TAFCPR
TAF
KCPR 091720Z 0918/1018 21017G25KT P6SM FEW250
     FM100000 21015KT P6SM FEW250
     FM100600 22020G30KT P6SM FEW250=



000
FTUS45 KRIW 091720
TAFRIW
TAF
KRIW 091720Z 0918/1018 VRB05KT P6SM SCT250=



000
FTUS45 KRIW 091122
TAFBPI
TAF
KBPI 091122Z 0912/1012 01011KT P6SM SCT250
     FM091600 34008KT P6SM SCT250
     FM100600 VRB05KT P6SM SCT250=



000
FTUS45 KRIW 091122
TAFRKS
TAF
KRKS 091122Z 0912/1012 24010KT P6SM SCT250=



000
FTUS45 KRIW 091122
TAFJAC
TAF
KJAC 091122Z 0912/1012 35005KT P6SM VCFG FEW005
     FM091300 VRB03KT P6SM VCFG SCT003
      TEMPO 0913/0915 2SM BR
     FM091700 VRB03KT P6SM FEW015
     FM100100 34005KT P6SM SKC
     FM100500 35006KT P6SM VCFG SCT005
      AMD LTD TO CLD VIS AND WIND=



000
FTUS45 KRIW 091122
TAFCOD
TAF
KCOD 091122Z 0912/1012 VRB05KT P6SM SCT250
     FM091800 05007KT P6SM SCT250
     FM100100 20006KT P6SM SCT250
     FM100700 26014G20KT P6SM SCT250
      AMD LTD TO CLD VIS AND WIND=



000
FTUS45 KRIW 091122
TAFWRL
TAF
KWRL 091122Z 0912/1012 VRB06KT P6SM SCT250=



000
FTUS45 KRIW 091122
TAFCPR
TAF
KCPR 091122Z 0912/1012 21017G25KT P6SM FEW250
     FM100000 21015KT P6SM FEW250
     FM100600 22020G30KT P6SM FEW250=



000
FTUS45 KRIW 091122
TAFRIW
TAF
KRIW 091122Z 0912/1012 28005KT P6SM VCFG SKC
     FM091700 VRB05KT P6SM SCT250
     FM100400 28006KT P6SM FEW250=



000
FTUS45 KRIW 091122
TAFLND
TAF
KLND 091122Z 0912/1012 VRB05KT P6SM SCT250=



000
FTUS45 KRIW 090526
TAFLND
TAF
KLND 090526Z 0906/1006 VRB05KT P6SM SCT250=



000
FTUS45 KRIW 090526
TAFRIW
TAF
KRIW 090526Z 0906/1006 28006KT P6SM FEW250
     FM091000 28005KT P6SM VCFG SKC
     FM091700 VRB05KT P6SM SCT250
     FM100400 28006KT P6SM FEW250=



000
FTUS45 KRIW 090526
TAFBPI
TAF
KBPI 090526Z 0906/1006 01011KT P6SM SCT250
     FM091200 34011KT P6SM SCT250=



000
FTUS45 KRIW 090526
TAFRKS
TAF
KRKS 090526Z 0906/1006 25015KT P6SM FEW250
     FM091200 24010KT P6SM SCT250=



000
FTUS45 KRIW 090526
TAFCOD
TAF
KCOD 090526Z 0906/1006 VRB05KT P6SM SCT250
     FM091800 05007KT P6SM SCT250
     FM100100 20006KT P6SM SCT250
      AMD LTD TO CLD VIS AND WIND=



000
FTUS45 KRIW 090526
TAFWRL
TAF
KWRL 090526Z 0906/1006 VRB06KT P6SM SCT250=



000
FTUS45 KRIW 090526
TAFJAC
TAF
KJAC 090526Z 0906/1006 35005KT P6SM VCFG FEW005
      TEMPO 0910/0913 2SM BR SCT005
     FM091300 VRB03KT 1SM BR OVC005
     FM091900 VRB03KT P6SM SCT015 BKN025
     FM092100 VRB03KT P6SM FEW040
     FM100100 34005KT P6SM SKC
     FM100500 35006KT P6SM VCFG SCT005
      AMD LTD TO CLD VIS AND WIND=



000
FTUS45 KRIW 090526
TAFCPR
TAF
KCPR 090526Z 0906/1006 23014KT P6SM SCT250
     FM091700 20017G25KT P6SM FEW250
     FM100000 21015KT P6SM FEW250=



000
FTUS45 KRIW 082327
TAFLND
TAF
KLND 082327Z 0900/0924 VRB05KT P6SM SCT250
     FM092000 VRB06KT P6SM SKC=



000
FTUS45 KRIW 082327
TAFRIW
TAF
KRIW 082327Z 0900/0924 VRB05KT P6SM FEW250
     FM091000 VRB04KT P6SM VCFG SKC
     FM091600 10005KT P6SM FEW250=



000
FTUS45 KRIW 082327
TAFJAC
TAF
KJAC 082327Z 0900/0924 VRB05KT P6SM SCT200
     FM090100 VRB05KT P6SM FEW200
     FM090700 VRB04KT P6SM VCFG SCT005
     FM091600 VRB05KT P6SM FEW005
      AMD LTD TO CLD VIS AND WIND=



000
FTUS45 KRIW 082327
TAFCPR
TAF
KCPR 082327Z 0900/0924 22012KT P6SM SCT250
     FM090600 23014KT P6SM SCT250
     FM091700 20017G22KT P6SM FEW250
     FM092200 21015KT P6SM FEW250=



000
FTUS45 KRIW 082327
TAFCOD
TAF
KCOD 082327Z 0900/0924 VRB06KT P6SM SCT250
     FM090400 26011KT P6SM SKC
     FM091900 VRB06KT P6SM SCT250
      AMD LTD TO CLD VIS AND WIND=



000
FTUS45 KRIW 082327
TAFWRL
TAF
KWRL 082327Z 0900/0924 VRB06KT P6SM SKC=



000
FTUS45 KRIW 082327
TAFBPI
TAF
KBPI 082327Z 0900/0924 32014KT P6SM SKC=



000
FTUS45 KRIW 082327
TAFRKS
TAF
KRKS 082327Z 0900/0924 24019KT P6SM FEW250
     FM090600 23011KT P6SM FEW250=



000
FTUS45 KRIW 082327
TAFBPI
TAF
KBPI 082327Z 0900/0924 32014KT P6SM SKC=



000
FTUS45 KRIW 082327
TAFJAC
TAF
KJAC 082327Z 0900/0924 VRB05KT P6SM SCT200
     FM090100 VRB05KT P6SM FEW200
     FM090700 VRB04KT P6SM VCFG SCT005
     FM091600 VRB05KT P6SM FEW005
      AMD LTD TO CLD VIS AND WIND=



000
FTUS45 KRIW 082327
TAFWRL
TAF
KWRL 082327Z 0900/0924 VRB06KT P6SM SKC=



000
FTUS45 KRIW 082327
TAFRIW
TAF
KRIW 082327Z 0900/0924 VRB05KT P6SM FEW250
     FM091000 VRB04KT P6SM VCFG SKC
     FM091600 10005KT P6SM FEW250=



000
FTUS45 KRIW 082327
TAFCOD
TAF
KCOD 082327Z 0900/0924 VRB06KT P6SM SCT250
     FM090400 26011KT P6SM SKC
     FM091900 VRB06KT P6SM SCT250
      AMD LTD TO CLD VIS AND WIND=



000
FTUS45 KRIW 082327
TAFCPR
TAF
KCPR 082327Z 0900/0924 22012KT P6SM SCT250
     FM090600 23014KT P6SM SCT250
     FM091700 20017G22KT P6SM FEW250
     FM092200 21015KT P6SM FEW250=



000
FTUS45 KRIW 082327
TAFRKS
TAF
KRKS 082327Z 0900/0924 24019KT P6SM FEW250
     FM090600 23011KT P6SM FEW250=



000
FTUS45 KRIW 082327
TAFLND
TAF
KLND 082327Z 0900/0924 VRB05KT P6SM SCT250
     FM092000 VRB06KT P6SM SKC=



000
FTUS45 KRIW 081820 AAA
TAFRIW
TAF AMD
KRIW 081820Z 0818/0918 VRB06KT P6SM FEW090 SCT250 WS005/25030KT
     FM090400 20006KT P6SM SKC
     FM091000 VRB04KT P6SM VCFG SKC
     FM091600 10005KT P6SM FEW250=



000
FTUS45 KRIW 081820 AAA
TAFRIW
TAF AMD
KRIW 081820Z 0818/0918 VRB06KT P6SM FEW090 SCT250 WS005/25030KT
     FM090400 20006KT P6SM SKC
     FM091000 VRB04KT P6SM VCFG SKC
     FM091600 10005KT P6SM FEW250=



000
FTUS45 KRIW 081720
TAFCOD
TAF
KCOD 081720Z 0818/0918 VRB05KT P6SM SCT250
     FM090400 26014KT P6SM SKC
      AMD LTD TO CLD VIS AND WIND=



000
FTUS45 KRIW 081720
TAFRKS
TAF
KRKS 081720Z 0818/0918 25018G25KT P6SM SCT250
     FM090000 25014G20KT P6SM FEW250
     FM090800 23011KT P6SM FEW250
     FM091500 25016KT P6SM FEW250=



000
FTUS45 KRIW 081720
TAFRIW
TAF
KRIW 081720Z 0818/0918 VRB06KT P6SM FEW090 SCT250
     FM090400 20006KT P6SM SKC
     FM091000 VRB04KT P6SM VCFG SKC
     FM091600 10005KT P6SM FEW250=



000
FTUS45 KRIW 081720
TAFBPI
TAF
KBPI 081720Z 0818/0918 36015G20KT P6SM SKC
     FM090000 32011KT P6SM SKC=



000
FTUS45 KRIW 081720
TAFWRL
TAF
KWRL 081720Z 0818/0918 16006KT P6SM SKC=



000
FTUS45 KRIW 081720
TAFCPR
TAF
KCPR 081720Z 0818/0918 24015G22KT P6SM SCT250
     FM090000 22012KT P6SM SCT250
     FM090600 23014G22KT P6SM SCT250=



000
FTUS45 KRIW 081720
TAFJAC
TAF
KJAC 081720Z 0818/0918 VRB05KT P6SM SCT060
     FM090100 36005KT P6SM FEW060
     FM090700 35005KT P6SM VCFG SCT005
     FM091600 VRB05KT P6SM FEW005
      AMD LTD TO CLD VIS AND WIND=



000
FTUS45 KRIW 081720
TAFLND
TAF
KLND 081720Z 0818/0918 VRB05KT P6SM FEW090 SCT250
     FM090200 24010KT P6SM SKC=



000
FTUS45 KRIW 081130
TAFCOD
TAF
KCOD 081130Z 0812/0912 VRB05KT P6SM SCT070 BKN250 WS015/30030KT
     FM081500 VRB05KT P6SM SCT250
     FM090400 26010KT P6SM SKC
      AMD LTD TO CLD VIS AND WIND=



000
FTUS45 KRIW 081130
TAFJAC
TAF
KJAC 081130Z 0812/0912 36005KT P6SM VCFG FEW005 SCT060
     FM081800 VRB05KT P6SM SCT060
     FM090100 36005KT P6SM FEW060
     FM090700 35005KT P6SM VCFG SCT005
      AMD LTD TO CLD VIS AND WIND=



000
FTUS45 KRIW 081130
TAFBPI
TAF
KBPI 081130Z 0812/0912 35014KT P6SM FEW100 SCT250 WS015/33040KT
     FM081800 33014G20KT P6SM SKC
     FM090000 34011KT P6SM SKC=



000
FTUS45 KRIW 081130
TAFLND
TAF
KLND 081130Z 0812/0912 VRB05KT P6SM FEW090 SCT250
     FM090200 24007KT P6SM SKC=



000
FTUS45 KRIW 081130
TAFCPR
TAF
KCPR 081130Z 0812/0912 23014KT P6SM SCT060
     FM081500 24015G25KT P6SM FEW080 SCT250
     FM090000 22012KT P6SM SCT250
     FM090600 23014G22KT P6SM SCT250=



000
FTUS45 KRIW 081130
TAFWRL
TAF
KWRL 081130Z 0812/0912 18006KT P6SM SCT080
     FM081800 14006KT P6SM SKC=



000
FTUS45 KRIW 081130
TAFRKS
TAF
KRKS 081130Z 0812/0912 26018G26KT P6SM FEW070 SCT200
     FM090000 25014G20KT P6SM SKC=



000
FTUS45 KRIW 081130
TAFRIW
TAF
KRIW 081130Z 0812/0912 VRB06KT P6SM FEW090 SCT250
     FM090400 30008KT P6SM SKC=



000
FTUS45 KRIW 080528
TAFCPR
TAF
KCPR 080528Z 0806/0906 24011KT P6SM BKN080
     FM081500 24015G25KT P6SM FEW080 SCT250
     FM090000 22012KT P6SM SCT250=



000
FTUS45 KRIW 080528
TAFJAC
TAF
KJAC 080528Z 0806/0906 35008KT P6SM BKN080
     FM081200 35005KT P6SM SCT025 BKN050
     FM081800 VRB05KT P6SM SCT050
     FM090100 36005KT P6SM FEW050
      AMD LTD TO CLD VIS AND WIND=



000
FTUS45 KRIW 080528
TAFRKS
TAF
KRKS 080528Z 0806/0906 26020KT P6SM SKC
     FM081200 26015KT P6SM FEW100 SCT200
     FM081900 25015G25KT P6SM SCT250
     FM090000 25014KT P6SM SKC=



000
FTUS45 KRIW 080528
TAFWRL
TAF
KWRL 080528Z 0806/0906 VRB05KT P6SM BKN080
     FM081500 VRB05KT P6SM SKC=



000
FTUS45 KRIW 080528
TAFCOD
TAF
KCOD 080528Z 0806/0906 VRB05KT P6SM BKN090 WS015/30030KT
     FM081500 VRB05KT P6SM SKC
     FM090400 26010KT P6SM SKC
      AMD LTD TO CLD VIS AND WIND=



000
FTUS45 KRIW 080528
TAFBPI
TAF
KBPI 080528Z 0806/0906 34015KT P6SM FEW100 SCT250 WS015/33040KT
     FM081800 33014G20KT P6SM SKC
     FM090000 34011KT P6SM SKC=



000
FTUS45 KRIW 080528
TAFRIW
TAF
KRIW 080528Z 0806/0906 VRB05KT P6SM BKN080
     FM081400 VRB05KT P6SM SKC
     FM090400 29007KT P6SM SKC=



000
FTUS45 KRIW 080528
TAFLND
TAF
KLND 080528Z 0806/0906 VRB05KT P6SM SCT090 SCT250=



000
FTUS45 KRIW 080528
TAFRKS
TAF
KRKS 080528Z 0806/0906 26020KT P6SM SKC
     FM081200 26015KT P6SM FEW100 SCT200
     FM081900 25015G25KT P6SM SCT250
     FM090000 25014KT P6SM SKC=



000
FTUS45 KRIW 080528
TAFBPI
TAF
KBPI 080528Z 0806/0906 34015KT P6SM FEW100 SCT250 WS015/33040KT
     FM081800 33014G20KT P6SM SKC
     FM090000 34011KT P6SM SKC=



000
FTUS45 KRIW 080528
TAFRIW
TAF
KRIW 080528Z 0806/0906 VRB05KT P6SM BKN080
     FM081400 VRB05KT P6SM SKC
     FM090400 29007KT P6SM SKC=



000
FTUS45 KRIW 080528
TAFCOD
TAF
KCOD 080528Z 0806/0906 VRB05KT P6SM BKN090 WS015/30030KT
     FM081500 VRB05KT P6SM SKC
     FM090400 26010KT P6SM SKC
      AMD LTD TO CLD VIS AND WIND=



000
FTUS45 KRIW 080528
TAFWRL
TAF
KWRL 080528Z 0806/0906 VRB05KT P6SM BKN080
     FM081500 VRB05KT P6SM SKC=



000
FTUS45 KRIW 080528
TAFLND
TAF
KLND 080528Z 0806/0906 VRB05KT P6SM SCT090 SCT250=



000
FTUS45 KRIW 080528
TAFCPR
TAF
KCPR 080528Z 0806/0906 24011KT P6SM BKN080
     FM081500 24015G25KT P6SM FEW080 SCT250
     FM090000 22012KT P6SM SCT250=



000
FTUS45 KRIW 080528
TAFJAC
TAF
KJAC 080528Z 0806/0906 35008KT P6SM BKN080
     FM081200 35005KT P6SM SCT025 BKN050
     FM081800 VRB05KT P6SM SCT050
     FM090100 36005KT P6SM FEW050
      AMD LTD TO CLD VIS AND WIND=



000
FTUS45 KRIW 080345 AAA
TAFJAC
TAF AMD
KJAC 080345Z 0804/0824 35008KT P6SM BKN100
     FM081200 35006KT P6SM SCT025 BKN050
     FM081800 VRB05KT P6SM SCT050
      AMD LTD TO CLD VIS AND WIND=



000
FTUS45 KRIW 080341 AAA
TAFCOD
TAF AMD
KCOD 080341Z 0804/0824 VRB05KT P6SM BKN090
     FM081200 VRB05KT P6SM SKC
      AMD LTD TO CLD VIS AND WIND=



000
FTUS45 KRIW 080341 AAA
TAFWRL
TAF AMD
KWRL 080341Z 0804/0824 VRB05KT P6SM BKN100
     FM081200 VRB05KT P6SM SKC=



000
FTUS45 KRIW 072330
TAFLND
TAF
KLND 072330Z 0800/0824 VRB05KT P6SM SCT250=



000
FTUS45 KRIW 072330
TAFJAC
TAF
KJAC 072330Z 0800/0824 28010G15KT P6SM SKC
     FM080400 VRB06KT P6SM SCT025 BKN050
      AMD LTD TO CLD VIS AND WIND=



000
FTUS45 KRIW 072330
TAFCOD
TAF
KCOD 072330Z 0800/0824 02008KT P6SM SCT250
     FM080200 VRB05KT P6SM SCT250
      AMD LTD TO CLD VIS AND WIND=



000
FTUS45 KRIW 072330
TAFWRL
TAF
KWRL 072330Z 0800/0824 VRB05KT P6SM FEW120 SCT250=



000
FTUS45 KRIW 072330
TAFRIW
TAF
KRIW 072330Z 0800/0824 VRB06KT P6SM SCT250
     FM080400 33011KT P6SM SKC
     FM081900 VRB05KT P6SM SCT250=



000
FTUS45 KRIW 072330
TAFRKS
TAF
KRKS 072330Z 0800/0824 27024G32KT P6SM SCT250
     FM080400 26018KT P6SM FEW250
     FM081200 25011KT P6SM SCT200
     FM081900 25013G22KT P6SM SCT250=



000
FTUS45 KRIW 072330
TAFBPI
TAF
KBPI 072330Z 0800/0824 34012G18KT P6SM SCT250
     FM080700 33007KT P6SM SCT250=



000
FTUS45 KRIW 072330
TAFCOD
TAF
KCOD 072330Z 0800/0824 02008KT P6SM SCT250
     FM080200 VRB05KT P6SM SCT250
      AMD LTD TO CLD VIS AND WIND=



000
FTUS45 KRIW 072330
TAFJAC
TAF
KJAC 072330Z 0800/0824 28010G15KT P6SM SKC
     FM080400 VRB06KT P6SM SCT025 BKN050
      AMD LTD TO CLD VIS AND WIND=



000
FTUS45 KRIW 072330
TAFCPR
TAF
KCPR 072330Z 0800/0824 24011KT P6SM SCT250
     FM081900 22015G22KT P6SM SCT250=



000
FTUS45 KRIW 072330
TAFLND
TAF
KLND 072330Z 0800/0824 VRB05KT P6SM SCT250=



000
FTUS45 KRIW 072330
TAFWRL
TAF
KWRL 072330Z 0800/0824 VRB05KT P6SM FEW120 SCT250=



000
FTUS45 KRIW 072330
TAFRIW
TAF
KRIW 072330Z 0800/0824 VRB06KT P6SM SCT250
     FM080400 33011KT P6SM SKC
     FM081900 VRB05KT P6SM SCT250=



000
FTUS45 KRIW 072330
TAFRKS
TAF
KRKS 072330Z 0800/0824 27024G32KT P6SM SCT250
     FM080400 26018KT P6SM FEW250
     FM081200 25011KT P6SM SCT200
     FM081900 25013G22KT P6SM SCT250=



000
FTUS45 KRIW 072330
TAFCPR
TAF
KCPR 072330Z 0800/0824 24011KT P6SM SCT250
     FM081900 22015G22KT P6SM SCT250=



000
FTUS45 KRIW 072330
TAFBPI
TAF
KBPI 072330Z 0800/0824 34012G18KT P6SM SCT250
     FM080700 33007KT P6SM SCT250=



000
FTUS45 KRIW 071727
TAFLND
TAF
KLND 071727Z 0718/0818 VRB05KT P6SM SCT250=



000
FTUS45 KRIW 071727
TAFRKS
TAF
KRKS 071727Z 0718/0818 27024G32KT P6SM SCT250
     FM080400 26018KT P6SM FEW250
     FM081200 25011KT P6SM SCT200=



000
FTUS45 KRIW 071727
TAFCOD
TAF
KCOD 071727Z 0718/0818 35011KT P6SM FEW070
     FM071900 03007KT P6SM FEW120 SCT250
     FM080000 VRB05KT P6SM SCT250
      AMD LTD TO CLD VIS AND WIND=



000
FTUS45 KRIW 071727
TAFWRL
TAF
KWRL 071727Z 0718/0818 VRB05KT P6SM FEW120 SCT250=



000
FTUS45 KRIW 071727
TAFRIW
TAF
KRIW 071727Z 0718/0818 VRB06KT P6SM SCT250
     FM080400 33011KT P6SM SKC=



000
FTUS45 KRIW 071727
TAFBPI
TAF
KBPI 071727Z 0718/0818 34012G18KT P6SM SCT250
     FM080700 33007KT P6SM SCT250=



000
FTUS45 KRIW 071727
TAFCPR
TAF
KCPR 071727Z 0718/0818 26014G20KT P6SM FEW150 SCT250
      TEMPO 0718/0720 VRB06KT
     FM080000 24011KT P6SM SCT250=



000
FTUS45 KRIW 071727
TAFJAC
TAF
KJAC 071727Z 0718/0818 18010G16KT P6SM SCT035 BKN060
     FM071900 19007KT P6SM FEW120 SCT250
     FM080000 VRB05KT P6SM SKC
     FM080400 VRB06KT P6SM SCT025 BKN050
      AMD LTD TO CLD VIS AND WIND=



000
FTUS45 KRIW 071727
TAFBPI
TAF
KBPI 071727Z 0718/0818 34012G18KT P6SM SCT250
     FM080700 33007KT P6SM SCT250=



000
FTUS45 KRIW 071727
TAFCPR
TAF
KCPR 071727Z 0718/0818 26014G20KT P6SM FEW150 SCT250
      TEMPO 0718/0720 VRB06KT
     FM080000 24011KT P6SM SCT250=



000
FTUS45 KRIW 071727
TAFRIW
TAF
KRIW 071727Z 0718/0818 VRB06KT P6SM SCT250
     FM080400 33011KT P6SM SKC=



000
FTUS45 KRIW 071727
TAFJAC
TAF
KJAC 071727Z 0718/0818 18010G16KT P6SM SCT035 BKN060
     FM071900 19007KT P6SM FEW120 SCT250
     FM080000 VRB05KT P6SM SKC
     FM080400 VRB06KT P6SM SCT025 BKN050
      AMD LTD TO CLD VIS AND WIND=



000
FTUS45 KRIW 071727
TAFLND
TAF
KLND 071727Z 0718/0818 VRB05KT P6SM SCT250=



000
FTUS45 KRIW 071727
TAFWRL
TAF
KWRL 071727Z 0718/0818 VRB05KT P6SM FEW120 SCT250=



000
FTUS45 KRIW 071727
TAFRKS
TAF
KRKS 071727Z 0718/0818 27024G32KT P6SM SCT250
     FM080400 26018KT P6SM FEW250
     FM081200 25011KT P6SM SCT200=



000
FTUS45 KRIW 071727
TAFCOD
TAF
KCOD 071727Z 0718/0818 35011KT P6SM FEW070
     FM071900 03007KT P6SM FEW120 SCT250
     FM080000 VRB05KT P6SM SCT250
      AMD LTD TO CLD VIS AND WIND=



000
FTUS45 KRIW 071133
TAFRKS
TAF
KRKS 071133Z 0712/0812 26018G26KT P6SM FEW050 SCT250
     FM071700 27024G32KT P6SM SCT250
     FM080400 26018KT P6SM FEW250=



000
FTUS45 KRIW 071133
TAFLND
TAF
KLND 071133Z 0712/0812 24007KT P6SM SCT250
     FM071700 VRB05KT P6SM SCT250=



000
FTUS45 KRIW 071133
TAFWRL
TAF
KWRL 071133Z 0712/0812 32011KT P6SM SCT090 WS020/34030KT
     FM071800 VRB05KT P6SM FEW120 SCT250=



000
FTUS45 KRIW 071133
TAFRIW
TAF
KRIW 071133Z 0712/0812 03008KT P6SM FEW090 SCT250 WS010/32035KT
     FM071500 VRB06KT P6SM SCT250
     FM080400 33011KT P6SM SKC=



000
FTUS45 KRIW 071133
TAFBPI
TAF
KBPI 071133Z 0712/0812 35016G24KT P6SM FEW050 SCT250
     FM071500 34012G18KT P6SM SCT250=



000
FTUS45 KRIW 071133
TAFJAC
TAF
KJAC 071133Z 0712/0812 18010G16KT P6SM SCT035 BKN060
     FM071900 19007KT P6SM FEW120 SCT250
     FM080000 VRB05KT P6SM SKC
     FM080400 34006KT P6SM SCT025 BKN050
      AMD LTD TO CLD VIS AND WIND=



000
FTUS45 KRIW 071133
TAFCPR
TAF
KCPR 071133Z 0712/0812 29007KT P6SM BKN060 WS015/33035KT
     FM071800 26014G20KT P6SM FEW150 SCT250
     FM080000 24010KT P6SM SCT250=



000
FTUS45 KRIW 071133
TAFCOD
TAF
KCOD 071133Z 0712/0812 35006KT P6SM FEW070
     FM071900 03007KT P6SM FEW120 SCT250
     FM080000 VRB05KT P6SM SCT250
      AMD LTD TO CLD VIS AND WIND=



    US Dept of Commerce
    National Oceanic and Atmospheric Administration
    National Weather Service
    1325 East West Highway
    Silver Spring, MD 20910
    Page Author: NWS Internet Services Team
Disclaimer
Information Quality
Credits
Glossary
Privacy Policy
Freedom of Information Act (FOIA)
About Us
Career Opportunities